TimeCST,TemperatureF,Dew PointF,Humidity,Sea Level PressureIn,VisibilityMPH,Wind Direction,Wind SpeedMPH,Gust SpeedMPH,PrecipitationIn,Events,Conditions,WindDirDegrees,DateUTC
12:13 AM,21.2,19.4,93,30.07,10.0,NW,4.6,-,N/A,,Overcast,320,2013-02-28 06:13:00
12:33 AM,24.8,21.2,86,30.07,10.0,NNW,6.9,-,N/A,,Overcast,330,2013-02-28 06:33:00
12:52 AM,24.8,21.2,86,30.07,10.0,NNW,4.6,-,N/A,,Overcast,340,2013-02-28 06:52:00
1:13 AM,26.6,21.2,80,30.08,10.0,NNW,8.1,-,N/A,,Overcast,340,2013-02-28 07:13:00
1:32 AM,26.6,21.2,80,30.08,10.0,North,8.1,-,N/A,,Overcast,350,2013-02-28 07:32:00
1:53 AM,26.6,23.0,86,30.08,10.0,NNW,8.1,-,N/A,,Overcast,340,2013-02-28 07:53:00
2:13 AM,26.6,21.2,80,30.08,10.0,NW,5.8,-,N/A,,Overcast,310,2013-02-28 08:13:00
2:32 AM,26.6,21.2,80,30.08,10.0,NW,4.6,-,N/A,,Overcast,310,2013-02-28 08:32:00
2:53 AM,26.6,23.0,86,30.08,10.0,NW,6.9,-,N/A,,Overcast,310,2013-02-28 08:53:00
3:13 AM,26.6,23.0,86,30.09,10.0,WNW,5.8,-,N/A,,Overcast,300,2013-02-28 09:13:00
3:53 AM,28.4,23.0,80,30.09,10.0,NW,4.6,-,N/A,,Overcast,320,2013-02-28 09:53:00
4:32 AM,28.4,23.0,80,30.10,10.0,NW,8.1,-,N/A,,Overcast,310,2013-02-28 10:32:00
4:53 AM,28.4,23.0,80,30.11,10.0,NW,8.1,-,N/A,,Overcast,320,2013-02-28 10:53:00
5:13 AM,28.4,23.0,80,30.11,10.0,NW,6.9,-,N/A,,Overcast,310,2013-02-28 11:13:00
5:32 AM,26.6,23.0,86,30.11,10.0,NW,5.8,-,N/A,,Overcast,320,2013-02-28 11:32:00
5:53 AM,28.4,24.8,86,30.12,10.0,North,5.8,-,N/A,,Overcast,350,2013-02-28 11:53:00
6:13 AM,28.4,24.8,86,30.12,10.0,NNW,5.8,-,N/A,,Overcast,340,2013-02-28 12:13:00
6:32 AM,28.4,24.8,86,30.12,10.0,North,5.8,-,N/A,,Overcast,360,2013-02-28 12:32:00
6:53 AM,28.4,23.0,80,30.13,10.0,NNE,8.1,-,N/A,,Overcast,20,2013-02-28 12:53:00
7:13 AM,28.4,23.0,80,30.13,10.0,North,6.9,-,N/A,,Overcast,10,2013-02-28 13:13:00
7:32 AM,28.4,23.0,80,30.13,10.0,North,8.1,-,N/A,,Overcast,10,2013-02-28 13:32:00
8:13 AM,28.4,23.0,80,30.14,10.0,North,10.4,-,N/A,,Overcast,360,2013-02-28 14:13:00
8:32 AM,28.4,23.0,80,30.15,10.0,North,12.7,-,N/A,,Overcast,360,2013-02-28 14:32:00
8:53 AM,28.4,23.0,80,30.15,10.0,North,11.5,-,N/A,,Overcast,360,2013-02-28 14:53:00
9:13 AM,28.4,23.0,80,30.15,10.0,North,10.4,-,N/A,,Overcast,360,2013-02-28 15:13:00
9:53 AM,28.4,21.2,74,30.16,10.0,NNE,9.2,-,N/A,,Overcast,30,2013-02-28 15:53:00
10:13 AM,28.4,21.2,74,30.16,10.0,NNE,8.1,-,N/A,,Overcast,30,2013-02-28 16:13:00
10:32 AM,28.4,21.2,74,30.17,10.0,NE,5.8,-,N/A,,Overcast,40,2013-02-28 16:32:00
10:53 AM,28.4,23.0,80,30.17,10.0,NNE,5.8,-,N/A,,Overcast,30,2013-02-28 16:53:00
11:13 AM,28.4,23.0,80,30.17,10.0,NNE,6.9,-,N/A,,Overcast,30,2013-02-28 17:13:00
11:32 AM,28.4,21.2,74,30.17,10.0,NNE,9.2,-,N/A,,Overcast,30,2013-02-28 17:32:00
11:53 AM,28.4,21.2,74,30.18,10.0,North,8.1,-,N/A,,Overcast,10,2013-02-28 17:53:00
12:13 PM,28.4,21.2,74,30.18,10.0,NNE,10.4,-,N/A,,Overcast,20,2013-02-28 18:13:00
12:32 PM,28.4,21.2,74,30.17,10.0,NNE,8.1,-,N/A,,Overcast,20,2013-02-28 18:32:00
12:53 PM,28.4,21.2,74,30.17,10.0,NNE,11.5,-,N/A,,Overcast,20,2013-02-28 18:53:00
1:12 PM,28.4,21.2,74,30.17,10.0,NNE,8.1,-,N/A,,Overcast,20,2013-02-28 19:12:00
1:33 PM,28.4,21.2,74,30.17,10.0,North,8.1,-,N/A,,Overcast,360,2013-02-28 19:33:00
1:53 PM,28.4,21.2,74,30.17,10.0,NNE,8.1,-,N/A,,Overcast,20,2013-02-28 19:53:00
2:12 PM,28.4,21.2,74,30.16,10.0,North,8.1,-,N/A,,Overcast,360,2013-02-28 20:12:00
2:33 PM,28.4,21.2,74,30.17,10.0,North,6.9,-,N/A,,Overcast,10,2013-02-28 20:33:00
2:53 PM,28.4,19.4,69,30.17,10.0,NNE,9.2,-,N/A,,Overcast,20,2013-02-28 20:53:00
3:12 PM,28.4,21.2,74,30.17,10.0,North,9.2,-,N/A,,Overcast,350,2013-02-28 21:12:00
3:33 PM,28.4,21.2,74,30.17,10.0,North,9.2,-,N/A,,Overcast,360,2013-02-28 21:33:00
3:53 PM,28.4,21.2,74,30.18,10.0,North,9.2,-,N/A,,Overcast,360,2013-02-28 21:53:00
4:12 PM,28.4,21.2,74,30.18,10.0,North,8.1,-,N/A,,Overcast,360,2013-02-28 22:12:00
4:33 PM,28.4,21.2,74,30.18,10.0,North,8.1,-,N/A,,Overcast,360,2013-02-28 22:33:00
4:53 PM,28.4,21.2,74,30.18,10.0,North,6.9,-,N/A,,Overcast,360,2013-02-28 22:53:00
5:12 PM,28.4,21.2,74,30.19,10.0,North,6.9,-,N/A,,Overcast,360,2013-02-28 23:12:00
5:33 PM,28.4,21.2,74,30.19,10.0,North,5.8,-,N/A,,Overcast,360,2013-02-28 23:33:00
5:53 PM,28.4,21.2,74,30.19,10.0,North,6.9,-,N/A,,Overcast,360,2013-02-28 23:53:00
6:12 PM,28.4,21.2,74,30.20,10.0,North,6.9,-,N/A,,Overcast,360,2013-03-01 00:12:00
6:33 PM,28.4,21.2,74,30.20,10.0,North,6.9,-,N/A,,Overcast,360,2013-03-01 00:33:00
6:53 PM,28.4,21.2,74,30.21,10.0,North,5.8,-,N/A,,Overcast,360,2013-03-01 00:53:00
7:12 PM,26.6,21.2,80,30.21,10.0,North,5.8,-,N/A,,Overcast,360,2013-03-01 01:12:00
7:33 PM,24.8,19.4,80,30.21,10.0,North,5.8,-,N/A,,Scattered Clouds,350,2013-03-01 01:33:00
7:53 PM,24.8,19.4,80,30.21,10.0,North,5.8,-,N/A,,Clear,360,2013-03-01 01:53:00
8:12 PM,23.0,17.6,80,30.22,10.0,North,4.6,-,N/A,,Clear,350,2013-03-01 02:12:00
8:33 PM,21.2,17.6,86,30.22,10.0,North,5.8,-,N/A,,Clear,350,2013-03-01 02:33:00
9:12 PM,21.2,17.6,86,30.22,10.0,NNW,5.8,-,N/A,,Clear,340,2013-03-01 03:12:00
9:33 PM,19.4,15.8,86,30.22,10.0,NNW,6.9,-,N/A,,Clear,340,2013-03-01 03:33:00
10:12 PM,19.4,15.8,86,30.23,10.0,NNW,8.1,-,N/A,,Clear,340,2013-03-01 04:12:00
10:33 PM,19.4,15.8,86,30.22,10.0,NNW,5.8,-,N/A,,Clear,340,2013-03-01 04:33:00
10:53 PM,17.6,15.8,93,30.22,10.0,NNW,6.9,-,N/A,,Clear,340,2013-03-01 04:53:00
11:12 PM,17.6,15.8,93,30.22,10.0,NNW,6.9,-,N/A,,Clear,340,2013-03-01 05:12:00
11:33 PM,17.6,14.0,86,30.22,10.0,North,6.9,-,N/A,,Clear,350,2013-03-01 05:33:00